createdAt,value
2023-10-30T00:00:13.841Z,14.94
2023-10-30T00:01:53.585Z,14.94
2023-10-30T00:03:33.359Z,14.96
2023-10-30T00:05:13.155Z,14.94
2023-10-30T00:06:52.891Z,14.92
2023-10-30T00:08:32.667Z,14.92
2023-10-30T00:10:12.441Z,14.91
2023-10-30T00:11:52.197Z,14.9
2023-10-30T00:13:32.018Z,14.89
2023-10-30T00:15:11.732Z,14.91
2023-10-30T00:16:51.491Z,14.89
2023-10-30T00:18:31.261Z,14.88
2023-10-30T00:20:11.048Z,14.89
2023-10-30T00:21:50.798Z,14.88
2023-10-30T00:23:30.576Z,14.89
2023-10-30T00:25:10.391Z,14.89
2023-10-30T00:26:50.150Z,14.89
2023-10-30T00:28:29.909Z,14.86
2023-10-30T00:30:09.639Z,14.86
2023-10-30T00:31:49.458Z,14.84
2023-10-30T00:33:29.194Z,14.85
2023-10-30T00:35:08.927Z,14.84
2023-10-30T00:36:48.717Z,14.87
2023-10-30T00:38:28.474Z,14.85
2023-10-30T00:40:08.249Z,14.84
2023-10-30T00:41:48.014Z,14.84
2023-10-30T00:43:27.785Z,14.84
2023-10-30T00:45:07.639Z,14.85
2023-10-30T00:46:47.319Z,14.81
2023-10-30T00:48:27.105Z,14.83
2023-10-30T00:50:06.866Z,14.82
2023-10-30T00:51:46.632Z,14.81
2023-10-30T00:53:26.439Z,14.8
2023-10-30T00:55:06.155Z,14.82
2023-10-30T00:56:45.937Z,14.82
2023-10-30T00:58:25.703Z,14.79
2023-10-30T01:00:05.460Z,14.78
2023-10-30T01:01:45.220Z,14.82
2023-10-30T01:03:24.980Z,14.79
2023-10-30T01:05:04.784Z,14.8
2023-10-30T01:06:44.530Z,14.78
2023-10-30T01:08:24.344Z,14.8
2023-10-30T01:10:04.214Z,14.77
2023-10-30T01:11:43.811Z,14.8
2023-10-30T01:13:23.600Z,14.78
2023-10-30T01:15:03.343Z,14.76
2023-10-30T01:16:43.127Z,14.77
2023-10-30T01:18:22.890Z,14.77
2023-10-30T01:20:02.659Z,14.77
2023-10-30T01:21:42.438Z,14.76
2023-10-30T01:23:22.233Z,14.76
2023-10-30T01:25:01.958Z,14.75
2023-10-30T01:26:41.722Z,14.75
2023-10-30T01:28:21.514Z,14.77
2023-10-30T01:30:01.261Z,14.75
2023-10-30T01:31:41.035Z,14.73
2023-10-30T01:33:20.800Z,14.75
2023-10-30T01:35:00.566Z,14.75
2023-10-30T01:36:40.340Z,14.71
2023-10-30T01:38:20.100Z,14.73
2023-10-30T01:39:59.896Z,14.71
2023-10-30T01:41:39.635Z,14.74
2023-10-30T01:43:19.411Z,14.7
2023-10-30T01:44:59.192Z,14.72
2023-10-30T01:46:38.952Z,14.71
2023-10-30T01:48:18.705Z,14.7
2023-10-30T01:49:58.472Z,14.72
2023-10-30T01:51:38.242Z,14.7
2023-10-30T01:53:18.004Z,14.69
2023-10-30T01:54:57.781Z,14.7
2023-10-30T01:56:37.547Z,14.68
2023-10-30T01:58:17.327Z,14.68
2023-10-30T01:59:57.090Z,14.69
2023-10-30T02:01:36.856Z,14.69
2023-10-30T02:03:16.625Z,14.68
2023-10-30T02:04:56.390Z,14.69
2023-10-30T02:06:36.157Z,14.69
2023-10-30T02:08:15.929Z,14.69
2023-10-30T02:09:55.725Z,14.67
2023-10-30T02:11:35.486Z,14.66
2023-10-30T02:13:15.211Z,14.68
2023-10-30T02:14:55.071Z,14.67
2023-10-30T02:16:34.757Z,14.67
2023-10-30T02:18:14.528Z,14.68
2023-10-30T02:19:54.298Z,14.66
2023-10-30T02:21:34.063Z,14.67
2023-10-30T02:23:13.823Z,14.67
2023-10-30T02:24:53.587Z,14.66
2023-10-30T02:26:33.350Z,14.64
2023-10-30T02:28:13.153Z,14.62
2023-10-30T02:29:52.897Z,14.62
2023-10-30T02:31:32.656Z,14.65
2023-10-30T02:33:12.434Z,14.64
2023-10-30T02:34:52.214Z,14.63
2023-10-30T02:36:31.977Z,14.64
2023-10-30T02:38:11.738Z,14.61
2023-10-30T02:39:51.496Z,14.6
2023-10-30T02:41:31.273Z,14.63
2023-10-30T02:43:11.040Z,14.63
2023-10-30T02:44:50.790Z,14.62
2023-10-30T02:46:30.585Z,14.62
2023-10-30T02:48:10.333Z,14.6
2023-10-30T02:49:50.118Z,14.6
2023-10-30T02:51:29.954Z,14.6
2023-10-30T02:53:09.646Z,14.6
2023-10-30T02:54:49.410Z,14.6
2023-10-30T02:56:29.180Z,14.61
2023-10-30T02:58:08.940Z,14.58
2023-10-30T02:59:48.863Z,14.6
2023-10-30T03:01:28.473Z,14.59
2023-10-30T03:03:08.237Z,14.6
2023-10-30T03:04:48.155Z,14.6
2023-10-30T03:06:27.777Z,14.58
2023-10-30T03:08:07.542Z,14.59
2023-10-30T03:09:47.319Z,14.59
2023-10-30T03:11:27.095Z,14.56
2023-10-30T03:13:06.846Z,14.56
2023-10-30T03:14:46.670Z,14.55
2023-10-30T03:16:26.384Z,14.56
2023-10-30T03:18:06.163Z,14.56
2023-10-30T03:19:45.997Z,14.58
2023-10-30T03:21:25.688Z,14.56
2023-10-30T03:23:05.454Z,14.56
2023-10-30T03:24:45.306Z,14.55
2023-10-30T03:26:24.981Z,14.54
2023-10-30T03:28:04.771Z,14.55
2023-10-30T03:29:44.538Z,14.54
2023-10-30T03:31:24.282Z,14.53
2023-10-30T03:33:04.067Z,14.53
2023-10-30T03:34:43.824Z,14.52
2023-10-30T03:36:23.588Z,14.52
2023-10-30T03:38:03.362Z,14.52
2023-10-30T03:39:43.123Z,14.53
2023-10-30T03:41:22.896Z,14.52
2023-10-30T03:43:02.672Z,14.51
2023-10-30T03:44:42.488Z,14.55
2023-10-30T03:46:22.219Z,14.52
2023-10-30T03:48:01.968Z,14.53
2023-10-30T03:49:41.751Z,14.53
2023-10-30T03:51:21.495Z,14.52
2023-10-30T03:53:01.270Z,14.5
2023-10-30T03:54:41.030Z,14.5
2023-10-30T03:56:20.810Z,14.52
2023-10-30T03:58:00.558Z,14.5
2023-10-30T03:59:40.345Z,14.51
2023-10-30T04:01:20.102Z,14.52
2023-10-30T04:02:59.872Z,14.49
2023-10-30T04:04:39.692Z,14.52
2023-10-30T04:06:19.394Z,14.51
2023-10-30T04:07:59.238Z,14.49
2023-10-30T04:09:38.962Z,14.52
2023-10-30T04:11:18.723Z,14.48
2023-10-30T04:12:58.473Z,14.49
2023-10-30T04:14:38.237Z,14.5
2023-10-30T04:16:18.022Z,14.5
2023-10-30T04:17:57.772Z,14.51
2023-10-30T04:19:37.566Z,14.47
2023-10-30T04:21:17.312Z,14.47
2023-10-30T04:22:57.093Z,14.5
2023-10-30T04:24:36.855Z,14.46
2023-10-30T04:26:16.615Z,14.48
2023-10-30T04:27:56.384Z,14.47
2023-10-30T04:29:36.148Z,14.49
2023-10-30T04:31:15.909Z,14.48
2023-10-30T04:32:55.694Z,14.48
2023-10-30T04:34:35.446Z,14.46
2023-10-30T04:36:15.212Z,14.46
2023-10-30T04:37:54.991Z,14.45
2023-10-30T04:39:34.751Z,14.46
2023-10-30T04:41:14.504Z,14.44
2023-10-30T04:42:54.311Z,14.46
2023-10-30T04:44:34.069Z,14.47
2023-10-30T04:46:13.829Z,14.44
2023-10-30T04:47:53.600Z,14.47
2023-10-30T04:49:33.352Z,14.46
2023-10-30T04:51:13.180Z,14.45
2023-10-30T04:52:52.895Z,14.45
2023-10-30T04:54:32.657Z,14.45
2023-10-30T04:56:12.437Z,14.45
2023-10-30T04:57:52.203Z,14.44
2023-10-30T04:59:31.973Z,14.43
2023-10-30T05:01:11.761Z,14.44
2023-10-30T05:02:51.514Z,14.42
2023-10-30T05:04:31.250Z,14.44
2023-10-30T05:06:11.062Z,14.44
2023-10-30T05:07:50.805Z,14.43
2023-10-30T05:09:30.576Z,14.42
2023-10-30T05:12:50.116Z,14.43
2023-10-30T05:14:29.867Z,14.4
2023-10-30T05:16:09.640Z,14.4
2023-10-30T05:19:29.171Z,14.39
2023-10-30T05:21:08.938Z,14.41
2023-10-30T05:22:48.708Z,14.4
2023-10-30T05:24:28.481Z,14.4
2023-10-30T05:26:08.245Z,14.37
2023-10-30T05:27:48.001Z,14.36
2023-10-30T05:29:27.779Z,14.37
2023-10-30T05:31:07.820Z,14.37
2023-10-30T05:32:47.311Z,14.37
2023-10-30T05:34:27.076Z,14.37
2023-10-30T05:36:06.851Z,14.37
2023-10-30T05:37:46.764Z,14.36
2023-10-30T05:39:26.387Z,14.34
2023-10-30T05:41:06.143Z,14.37
2023-10-30T05:42:45.902Z,14.34
2023-10-30T05:44:25.679Z,14.35
2023-10-30T05:46:05.455Z,14.35
2023-10-30T05:47:45.223Z,14.35
2023-10-30T05:49:24.990Z,14.38
2023-10-30T05:51:04.747Z,14.41
2023-10-30T05:52:44.524Z,14.44
2023-10-30T05:54:24.286Z,14.42
2023-10-30T05:56:04.047Z,14.45
2023-10-30T05:57:43.832Z,14.45
2023-10-30T05:59:23.598Z,14.44
2023-10-30T06:01:03.381Z,14.49
2023-10-30T06:02:43.129Z,14.49
2023-10-30T06:04:22.903Z,14.49
2023-10-30T06:06:02.656Z,14.53
2023-10-30T06:07:42.436Z,14.53
2023-10-30T06:09:22.192Z,14.55
2023-10-30T06:11:01.969Z,14.54
2023-10-30T06:12:41.724Z,14.58
2023-10-30T06:14:21.503Z,14.56
2023-10-30T06:16:01.262Z,14.57
2023-10-30T06:17:41.038Z,14.57
2023-10-30T06:19:20.829Z,14.62
2023-10-30T06:21:00.571Z,14.57
2023-10-30T06:22:40.327Z,14.6
2023-10-30T06:24:20.101Z,14.65
2023-10-30T06:25:59.877Z,14.62
2023-10-30T06:27:39.640Z,14.63
2023-10-30T06:29:19.404Z,14.64
2023-10-30T06:30:59.177Z,14.67
2023-10-30T06:32:38.957Z,14.68
2023-10-30T06:34:18.723Z,14.64
2023-10-30T06:35:58.538Z,14.68
2023-10-30T06:37:38.267Z,14.68
2023-10-30T06:39:18.303Z,14.67
2023-10-30T06:40:57.854Z,14.69
2023-10-30T06:42:37.566Z,14.69
2023-10-30T06:45:57.148Z,14.72
2023-10-30T06:47:36.882Z,14.73
2023-10-30T06:49:16.657Z,14.72
2023-10-30T06:50:56.413Z,14.74
2023-10-30T06:52:36.198Z,14.75
2023-10-30T06:54:15.960Z,14.75
2023-10-30T06:55:55.734Z,14.8
2023-10-30T06:57:35.509Z,14.81
2023-10-30T06:59:15.267Z,14.83
2023-10-30T07:00:55.057Z,14.82
2023-10-30T07:02:34.805Z,14.81
2023-10-30T07:04:14.568Z,14.84
2023-10-30T07:05:54.376Z,14.82
2023-10-30T07:07:34.114Z,14.84
2023-10-30T07:09:13.941Z,14.85
2023-10-30T07:10:53.698Z,14.84
2023-10-30T07:12:33.441Z,14.88
2023-10-30T07:14:13.233Z,14.86
2023-10-30T07:15:52.969Z,14.88
2023-10-30T07:17:32.752Z,14.87
2023-10-30T07:19:12.506Z,14.9
2023-10-30T07:20:52.287Z,14.9
2023-10-30T07:24:11.837Z,14.96
2023-10-30T07:25:51.593Z,14.94
2023-10-30T07:27:31.371Z,14.94
2023-10-30T07:29:11.137Z,14.93
2023-10-30T07:30:50.904Z,14.92
2023-10-30T07:32:30.737Z,14.95
2023-10-30T07:34:10.506Z,14.9
2023-10-30T07:35:50.206Z,14.92
2023-10-30T07:37:29.999Z,14.91
2023-10-30T07:39:09.751Z,14.94
2023-10-30T07:40:49.533Z,14.9
2023-10-30T07:44:09.074Z,14.94
2023-10-30T07:45:48.836Z,14.95
2023-10-30T07:47:28.612Z,15
2023-10-30T07:49:08.369Z,15.07
2023-10-30T07:50:48.183Z,15.09
2023-10-30T07:52:27.918Z,15.16
2023-10-30T07:54:07.944Z,15.21
2023-10-30T07:55:47.552Z,15.31
2023-10-30T07:57:27.335Z,15.33
2023-10-30T07:59:07.295Z,15.36
2023-10-30T08:00:47.160Z,15.41
2023-10-30T08:02:26.703Z,15.45
2023-10-30T08:04:06.598Z,15.46
2023-10-30T08:05:46.193Z,15.51
2023-10-30T08:07:25.845Z,15.56
2023-10-30T08:09:05.618Z,15.56
2023-10-30T08:10:45.386Z,15.65
2023-10-30T08:12:25.177Z,15.63
2023-10-30T08:14:04.936Z,15.68
2023-10-30T08:15:44.730Z,15.68
2023-10-30T08:17:24.469Z,15.72
2023-10-30T08:19:04.246Z,15.75
2023-10-30T08:20:44.039Z,15.78
2023-10-30T08:22:23.784Z,15.78
2023-10-30T08:24:03.557Z,15.81
2023-10-30T08:25:43.325Z,15.83
2023-10-30T08:27:23.093Z,15.85
2023-10-30T08:29:02.878Z,15.89
2023-10-30T08:30:42.638Z,15.88
2023-10-30T08:32:22.711Z,15.9
2023-10-30T08:34:02.243Z,15.93
2023-10-30T08:35:42.067Z,15.95
2023-10-30T08:37:21.714Z,15.97
2023-10-30T08:39:01.496Z,15.99
2023-10-30T08:40:41.275Z,15.97
2023-10-30T08:42:21.040Z,16.02
2023-10-30T08:44:00.811Z,16.02
2023-10-30T08:45:40.568Z,16.04
2023-10-30T08:47:20.353Z,16.04
2023-10-30T08:49:00.114Z,16.07
2023-10-30T08:50:39.896Z,16.09
2023-10-30T08:52:19.654Z,16.08
2023-10-30T08:53:59.434Z,16.1
2023-10-30T08:55:39.189Z,16.09
2023-10-30T08:57:18.967Z,16.12
2023-10-30T08:58:58.733Z,16.16
2023-10-30T09:00:38.530Z,16.11
2023-10-30T09:02:18.277Z,16.12
2023-10-30T09:03:58.053Z,16.17
2023-10-30T09:05:37.821Z,16.18
2023-10-30T09:07:17.586Z,16.18
2023-10-30T09:08:57.354Z,16.17
2023-10-30T09:10:37.138Z,16.19
2023-10-30T09:12:16.913Z,16.2
2023-10-30T09:13:56.671Z,16.23
2023-10-30T09:15:36.442Z,16.23
2023-10-30T09:17:16.220Z,16.26
2023-10-30T09:18:55.997Z,16.25
2023-10-30T09:22:15.530Z,16.28
2023-10-30T09:23:55.304Z,16.26
2023-10-30T09:25:35.139Z,16.29
2023-10-30T09:27:14.880Z,16.29
2023-10-30T09:28:54.765Z,16.34
2023-10-30T09:30:34.535Z,16.36
2023-10-30T09:32:14.393Z,16.37
2023-10-30T09:33:54.132Z,16.37
2023-10-30T09:35:33.678Z,16.37
2023-10-30T09:38:53.223Z,16.44
2023-10-30T09:40:33.008Z,16.42
2023-10-30T09:42:12.758Z,16.44
2023-10-30T09:43:52.536Z,16.45
2023-10-30T09:45:32.318Z,16.45
2023-10-30T09:47:12.078Z,16.5
2023-10-30T09:48:51.847Z,16.52
2023-10-30T09:50:31.616Z,16.51
2023-10-30T09:52:11.389Z,16.54
2023-10-30T09:53:51.158Z,16.53
2023-10-30T09:55:30.939Z,16.54
2023-10-30T09:57:10.702Z,16.59
2023-10-30T09:58:50.480Z,16.6
2023-10-30T10:00:30.252Z,16.61
2023-10-30T10:02:10.019Z,16.61
2023-10-30T10:03:49.789Z,16.64
2023-10-30T10:05:29.560Z,16.64
2023-10-30T10:07:09.318Z,16.66
2023-10-30T10:10:28.857Z,16.71
2023-10-30T10:12:08.626Z,16.73
2023-10-30T10:13:48.415Z,16.75
2023-10-30T10:15:28.245Z,16.76
2023-10-30T10:17:07.942Z,16.78
2023-10-30T10:18:47.722Z,16.79
2023-10-30T10:20:27.480Z,16.82
2023-10-30T10:22:07.267Z,16.85
2023-10-30T10:23:47.039Z,16.87
2023-10-30T10:25:26.797Z,16.87
2023-10-30T10:27:06.576Z,16.87
2023-10-30T10:28:46.342Z,16.9
2023-10-30T10:30:26.117Z,16.93
2023-10-30T10:32:05.871Z,16.95
2023-10-30T10:33:45.654Z,16.96
2023-10-30T10:35:25.420Z,16.99
2023-10-30T10:37:05.184Z,17.01
2023-10-30T10:38:44.966Z,17.02
2023-10-30T10:40:24.760Z,17.04
2023-10-30T10:42:04.541Z,17.03
2023-10-30T10:43:44.353Z,17.06
2023-10-30T10:45:24.053Z,17.1
2023-10-30T10:47:03.814Z,17.09
2023-10-30T10:48:43.598Z,17.09
2023-10-30T10:50:23.359Z,17.06
2023-10-30T10:52:03.129Z,17.06
2023-10-30T10:53:42.898Z,17.06
2023-10-30T10:55:22.669Z,17.02
2023-10-30T10:58:42.271Z,17.1
2023-10-30T11:00:22.127Z,17.12
2023-10-30T11:02:01.991Z,17.14
2023-10-30T11:03:41.505Z,17.17
2023-10-30T11:05:21.336Z,17.17
2023-10-30T11:07:01.071Z,17.23
2023-10-30T11:08:40.834Z,17.23
2023-10-30T11:10:20.591Z,17.23
2023-10-30T11:12:00.372Z,17.24
2023-10-30T11:13:40.146Z,17.25
2023-10-30T11:15:19.909Z,17.26
2023-10-30T11:16:59.670Z,17.28
2023-10-30T11:20:19.227Z,17.29
2023-10-30T11:21:58.999Z,17.29
2023-10-30T11:23:38.769Z,17.29
2023-10-30T11:26:58.309Z,17.32
2023-10-30T11:28:38.072Z,17.36
2023-10-30T11:30:17.837Z,17.37
2023-10-30T11:31:57.616Z,17.39
2023-10-30T11:33:37.377Z,17.43
2023-10-30T11:35:17.210Z,17.4
2023-10-30T11:36:56.922Z,17.42
2023-10-30T11:38:36.697Z,17.45
2023-10-30T11:40:16.450Z,17.48
2023-10-30T11:41:56.236Z,17.46
2023-10-30T11:43:36.003Z,17.51
2023-10-30T11:45:15.789Z,17.51
2023-10-30T11:46:55.537Z,17.54
2023-10-30T11:48:35.322Z,17.53
2023-10-30T11:50:15.084Z,17.53
2023-10-30T11:51:54.851Z,17.59
2023-10-30T11:53:34.622Z,17.57
2023-10-30T11:55:14.386Z,17.6
2023-10-30T11:56:54.163Z,17.61
2023-10-30T11:58:33.929Z,17.64
2023-10-30T12:00:13.711Z,17.64
2023-10-30T12:01:53.492Z,17.67
2023-10-30T12:03:33.254Z,17.68
2023-10-30T12:05:13.026Z,17.7
2023-10-30T12:06:52.788Z,17.7
2023-10-30T12:08:32.552Z,17.7
2023-10-30T12:10:12.342Z,17.77
2023-10-30T12:11:52.097Z,17.77
2023-10-30T12:13:31.880Z,17.79
2023-10-30T12:15:11.647Z,17.79
2023-10-30T12:16:51.429Z,17.82
2023-10-30T12:18:31.177Z,17.82
2023-10-30T12:20:10.964Z,17.84
2023-10-30T12:21:50.728Z,17.9
2023-10-30T12:23:30.505Z,17.92
2023-10-30T12:25:10.268Z,17.91
2023-10-30T12:26:50.039Z,17.95
2023-10-30T12:28:29.795Z,17.95
2023-10-30T12:30:09.581Z,17.95
2023-10-30T12:31:49.348Z,18
2023-10-30T12:33:29.108Z,18.01
2023-10-30T12:35:08.899Z,18.01
2023-10-30T12:36:48.676Z,18.03
2023-10-30T12:38:28.430Z,18.07
2023-10-30T12:40:08.192Z,18.1
2023-10-30T12:41:47.973Z,18.1
2023-10-30T12:43:27.724Z,18.14
2023-10-30T12:45:07.509Z,18.15
2023-10-30T12:46:47.281Z,18.17
2023-10-30T12:48:27.041Z,18.23
2023-10-30T12:50:06.817Z,18.2
2023-10-30T12:51:46.587Z,18.28
2023-10-30T12:53:26.363Z,18.28
2023-10-30T12:55:06.114Z,18.29
2023-10-30T12:56:45.894Z,18.34
2023-10-30T12:58:25.683Z,18.37
2023-10-30T13:00:05.445Z,18.39
2023-10-30T13:01:45.216Z,18.4
2023-10-30T13:03:24.982Z,18.44
2023-10-30T13:05:04.756Z,18.44
2023-10-30T13:06:44.527Z,18.46
2023-10-30T13:08:24.312Z,18.49
2023-10-30T13:10:04.051Z,18.51
2023-10-30T13:11:43.836Z,18.49
2023-10-30T13:13:23.723Z,18.54
2023-10-30T13:16:43.142Z,18.57
2023-10-30T13:18:23.141Z,18.54
2023-10-30T13:20:02.893Z,18.6
2023-10-30T13:21:42.465Z,18.56
2023-10-30T13:23:22.233Z,18.57
2023-10-30T13:25:01.983Z,18.59
2023-10-30T13:26:41.760Z,18.6
2023-10-30T13:28:21.532Z,18.61
2023-10-30T13:30:01.294Z,18.65
2023-10-30T13:31:41.070Z,18.64
2023-10-30T13:33:20.859Z,18.68
2023-10-30T13:35:00.632Z,18.67
2023-10-30T13:36:40.377Z,18.67
2023-10-30T13:38:20.165Z,18.71
2023-10-30T13:39:59.934Z,18.7
2023-10-30T13:41:39.725Z,18.7
2023-10-30T13:43:19.489Z,18.73
2023-10-30T13:44:59.226Z,18.74
2023-10-30T13:46:39.020Z,18.74
2023-10-30T13:48:18.772Z,18.79
2023-10-30T13:49:58.561Z,18.75
2023-10-30T13:51:38.323Z,18.77
2023-10-30T13:53:18.101Z,18.78
2023-10-30T13:54:57.856Z,18.79
2023-10-30T13:56:37.642Z,18.78
2023-10-30T13:58:17.420Z,18.82
2023-10-30T13:59:57.175Z,18.81
2023-10-30T14:01:36.961Z,18.82
2023-10-30T14:03:16.706Z,18.85
2023-10-30T14:04:56.494Z,18.81
2023-10-30T14:06:36.260Z,18.83
2023-10-30T14:08:16.030Z,18.83
2023-10-30T14:09:55.795Z,18.86
2023-10-30T14:11:35.554Z,18.86
2023-10-30T14:13:15.339Z,18.83
2023-10-30T14:14:55.110Z,18.85
2023-10-30T14:16:34.886Z,18.84
2023-10-30T14:18:14.660Z,18.82
2023-10-30T14:19:54.414Z,18.85
2023-10-30T14:21:34.205Z,18.82
2023-10-30T14:23:13.958Z,18.82
2023-10-30T14:24:53.744Z,18.81
2023-10-30T14:26:33.508Z,18.79
2023-10-30T14:28:13.279Z,18.81
2023-10-30T14:29:53.058Z,18.81
2023-10-30T14:31:32.819Z,18.79
2023-10-30T14:33:12.600Z,18.81
2023-10-30T14:34:52.370Z,18.81
2023-10-30T14:36:32.127Z,18.76
2023-10-30T14:38:11.908Z,18.78
2023-10-30T14:39:51.661Z,18.78
2023-10-30T14:41:31.438Z,18.76
2023-10-30T14:43:11.204Z,18.73
2023-10-30T14:44:50.992Z,18.75
2023-10-30T14:46:30.756Z,18.74
2023-10-30T14:48:10.518Z,18.73
2023-10-30T14:49:50.300Z,18.71
2023-10-30T14:51:30.065Z,18.67
2023-10-30T14:53:09.819Z,18.67
2023-10-30T14:54:49.604Z,18.62
2023-10-30T14:56:29.367Z,18.62
2023-10-30T14:58:09.128Z,18.65
2023-10-30T14:59:48.909Z,18.62
2023-10-30T15:01:28.682Z,18.61
2023-10-30T15:03:08.438Z,18.61
2023-10-30T15:04:48.198Z,18.59
2023-10-30T15:06:28.113Z,18.56
2023-10-30T15:08:07.738Z,18.56
2023-10-30T15:09:47.507Z,18.52
2023-10-30T15:11:27.380Z,18.53
2023-10-30T15:13:07.083Z,18.52
2023-10-30T15:14:46.813Z,18.5
2023-10-30T15:16:26.733Z,18.49
2023-10-30T15:18:06.454Z,18.45
2023-10-30T15:19:46.411Z,18.44
2023-10-30T15:21:25.881Z,18.43
2023-10-30T15:23:05.636Z,18.41
2023-10-30T15:24:45.402Z,18.42
2023-10-30T15:26:25.180Z,18.4
2023-10-30T15:28:04.942Z,18.37
2023-10-30T15:29:44.713Z,18.37
2023-10-30T15:31:24.490Z,18.36
2023-10-30T15:33:04.259Z,18.35
2023-10-30T15:34:44.006Z,18.35
2023-10-30T15:36:23.785Z,18.32
2023-10-30T15:38:03.565Z,18.29
2023-10-30T15:39:43.319Z,18.28
2023-10-30T15:41:23.089Z,18.28
2023-10-30T15:43:02.864Z,18.29
2023-10-30T15:44:42.620Z,18.25
2023-10-30T15:46:22.389Z,18.25
2023-10-30T15:48:02.170Z,18.23
2023-10-30T15:49:41.922Z,18.23
2023-10-30T15:51:21.690Z,18.24
2023-10-30T15:53:01.451Z,18.2
2023-10-30T15:54:41.228Z,18.18
2023-10-30T15:56:20.982Z,18.15
2023-10-30T15:58:00.764Z,18.12
2023-10-30T15:59:40.526Z,18.1
2023-10-30T16:01:20.304Z,18.07
2023-10-30T16:03:00.059Z,18.04
2023-10-30T16:04:39.840Z,18.03
2023-10-30T16:06:19.592Z,18
2023-10-30T16:07:59.370Z,17.96
2023-10-30T16:09:39.125Z,17.93
2023-10-30T16:11:18.896Z,17.89
2023-10-30T16:12:58.664Z,17.87
2023-10-30T16:14:38.430Z,17.86
2023-10-30T16:16:18.206Z,17.84
2023-10-30T16:17:57.969Z,17.81
2023-10-30T16:19:37.749Z,17.79
2023-10-30T16:21:17.502Z,17.75
2023-10-30T16:22:57.275Z,17.73
2023-10-30T16:24:37.052Z,17.71
2023-10-30T16:26:16.816Z,17.69
2023-10-30T16:27:56.587Z,17.64
2023-10-30T16:29:36.352Z,17.64
2023-10-30T16:31:16.106Z,17.62
2023-10-30T16:32:55.878Z,17.6
2023-10-30T16:34:35.649Z,17.58
2023-10-30T16:36:15.422Z,17.56
2023-10-30T16:37:55.192Z,17.54
2023-10-30T16:39:34.955Z,17.51
2023-10-30T16:41:14.720Z,17.46
2023-10-30T16:42:54.483Z,17.48
2023-10-30T16:44:34.257Z,17.45
2023-10-30T16:46:14.027Z,17.43
2023-10-30T16:47:53.794Z,17.4
2023-10-30T16:49:33.570Z,17.41
2023-10-30T16:51:13.325Z,17.37
2023-10-30T16:52:53.096Z,17.37
2023-10-30T16:54:32.876Z,17.34
2023-10-30T16:56:12.628Z,17.33
2023-10-30T16:57:52.400Z,17.31
2023-10-30T16:59:32.168Z,17.29
2023-10-30T17:01:11.943Z,17.26
2023-10-30T17:02:51.701Z,17.26
2023-10-30T17:04:31.480Z,17.24
2023-10-30T17:06:11.253Z,17.23
2023-10-30T17:07:51.004Z,17.2
2023-10-30T17:09:30.762Z,17.19
2023-10-30T17:11:10.540Z,17.17
2023-10-30T17:12:50.299Z,17.14
2023-10-30T17:14:30.080Z,17.12
2023-10-30T17:16:09.840Z,17.14
2023-10-30T17:17:49.611Z,17.11
2023-10-30T17:19:29.377Z,17.09
2023-10-30T17:21:09.130Z,17.08
2023-10-30T17:22:48.911Z,17.07
2023-10-30T17:24:28.672Z,17.04
2023-10-30T17:26:08.445Z,17.03
2023-10-30T17:27:48.204Z,17
2023-10-30T17:29:27.978Z,16.99
2023-10-30T17:31:07.741Z,16.96
2023-10-30T17:32:47.511Z,16.96
2023-10-30T17:34:27.289Z,16.94
2023-10-30T17:36:07.049Z,16.94
2023-10-30T17:37:46.819Z,16.91
2023-10-30T17:39:26.574Z,16.87
2023-10-30T17:41:06.350Z,16.89
2023-10-30T17:42:46.108Z,16.87
2023-10-30T17:44:25.900Z,16.87
2023-10-30T17:46:05.730Z,16.83
2023-10-30T17:47:45.418Z,16.84
2023-10-30T17:49:25.180Z,16.81
2023-10-30T17:51:04.957Z,16.79
2023-10-30T17:52:44.730Z,16.79
2023-10-30T17:54:24.490Z,16.79
2023-10-30T17:56:04.246Z,16.76
2023-10-30T17:57:44.039Z,16.74
2023-10-30T17:59:23.785Z,16.71
2023-10-30T18:01:03.574Z,16.73
2023-10-30T18:02:43.334Z,16.73
2023-10-30T18:04:23.095Z,16.7
2023-10-30T18:06:02.860Z,16.67
2023-10-30T18:07:42.633Z,16.67
2023-10-30T18:09:22.402Z,16.65
2023-10-30T18:11:02.172Z,16.62
2023-10-30T18:12:41.932Z,16.61
2023-10-30T18:14:21.698Z,16.61
2023-10-30T18:16:01.499Z,16.6
2023-10-30T18:17:41.231Z,16.59
2023-10-30T18:19:21.008Z,16.56
2023-10-30T18:21:00.776Z,16.54
2023-10-30T18:22:40.532Z,16.56
2023-10-30T18:24:20.313Z,16.52
2023-10-30T18:26:00.061Z,16.52
2023-10-30T18:27:39.844Z,16.51
2023-10-30T18:29:19.616Z,16.5
2023-10-30T18:30:59.420Z,16.49
2023-10-30T18:32:39.181Z,16.48
2023-10-30T18:34:18.918Z,16.45
2023-10-30T18:35:58.699Z,16.44
2023-10-30T18:37:38.454Z,16.42
2023-10-30T18:39:18.211Z,16.42
2023-10-30T18:40:57.985Z,16.41
2023-10-30T18:42:37.745Z,16.37
2023-10-30T18:44:17.508Z,16.37
2023-10-30T18:45:57.518Z,16.37
2023-10-30T18:47:37.336Z,16.35
2023-10-30T18:49:16.997Z,16.34
2023-10-30T18:50:56.650Z,16.32
2023-10-30T18:52:36.670Z,16.31
2023-10-30T18:54:16.436Z,16.29
2023-10-30T18:55:56.229Z,16.29
2023-10-30T18:57:35.954Z,16.27
2023-10-30T18:59:15.437Z,16.28
2023-10-30T19:00:55.487Z,16.27
2023-10-30T19:02:35.325Z,16.23
2023-10-30T19:04:14.957Z,16.23
2023-10-30T19:05:54.496Z,16.23
2023-10-30T19:07:34.553Z,16.2
2023-10-30T19:09:14.176Z,16.2
2023-10-30T19:10:54.143Z,16.2
2023-10-30T19:12:33.821Z,16.17
2023-10-30T19:14:13.675Z,16.18
2023-10-30T19:15:53.470Z,16.15
2023-10-30T19:17:33.129Z,16.12
2023-10-30T19:19:12.897Z,16.12
2023-10-30T19:20:52.726Z,16.14
2023-10-30T19:22:32.167Z,16.12
2023-10-30T19:24:12.237Z,16.12
2023-10-30T19:25:52.105Z,16.11
2023-10-30T19:27:31.739Z,16.09
2023-10-30T19:29:11.258Z,16.08
2023-10-30T19:30:51.303Z,16.07
2023-10-30T19:32:31.060Z,16.06
2023-10-30T19:34:10.788Z,16.03
2023-10-30T19:35:50.601Z,16.04
2023-10-30T19:37:30.275Z,16.02
2023-10-30T19:39:09.835Z,16.03
2023-10-30T19:40:49.606Z,16.01
2023-10-30T19:42:29.531Z,16.01
2023-10-30T19:44:09.161Z,16
2023-10-30T19:45:49.263Z,15.97
2023-10-30T19:47:28.931Z,15.96
2023-10-30T19:49:08.535Z,15.95
2023-10-30T19:50:48.518Z,15.96
2023-10-30T19:52:28.373Z,15.94
2023-10-30T19:54:07.746Z,15.94
2023-10-30T19:55:47.508Z,15.94
2023-10-30T19:57:27.585Z,15.93
2023-10-30T19:59:07.372Z,15.92
2023-10-30T20:00:46.867Z,15.89
2023-10-30T20:02:26.933Z,15.89
2023-10-30T20:04:06.692Z,15.87
2023-10-30T20:05:46.342Z,15.86
2023-10-30T20:07:26.143Z,15.88
2023-10-30T20:09:05.814Z,15.86
2023-10-30T20:10:45.521Z,15.84
2023-10-30T20:12:25.305Z,15.82
2023-10-30T20:14:05.227Z,15.84
2023-10-30T20:15:45.044Z,15.84
2023-10-30T20:17:24.503Z,15.8
2023-10-30T20:19:04.443Z,15.8
2023-10-30T20:20:44.098Z,15.81
2023-10-30T20:22:24.071Z,15.81
2023-10-30T20:24:03.672Z,15.8
2023-10-30T20:25:43.574Z,15.8
2023-10-30T20:27:23.351Z,15.78
2023-10-30T20:29:03.084Z,15.76
2023-10-30T20:30:42.680Z,15.77
2023-10-30T20:32:22.584Z,15.77
2023-10-30T20:34:02.347Z,15.77
2023-10-30T20:35:41.933Z,15.75
2023-10-30T20:37:21.918Z,15.74
2023-10-30T20:39:01.613Z,15.73
2023-10-30T20:40:41.488Z,15.72
2023-10-30T20:42:21.067Z,15.73
2023-10-30T20:44:00.927Z,15.72
2023-10-30T20:45:40.653Z,15.71
2023-10-30T20:47:20.412Z,15.69
2023-10-30T20:49:00.309Z,15.68
2023-10-30T20:50:39.948Z,15.67
2023-10-30T20:52:19.624Z,15.66
2023-10-30T20:53:59.566Z,15.65
2023-10-30T20:55:39.142Z,15.65
2023-10-30T20:57:19.181Z,15.67
2023-10-30T20:58:58.679Z,15.63
2023-10-30T21:00:38.508Z,15.63
2023-10-30T21:02:18.300Z,15.61
2023-10-30T21:03:57.981Z,15.63
2023-10-30T21:05:37.750Z,15.59
2023-10-30T21:07:17.568Z,15.61
2023-10-30T21:08:57.303Z,15.6
2023-10-30T21:10:37.158Z,15.6
2023-10-30T21:12:16.937Z,15.59
2023-10-30T21:13:56.643Z,15.57
2023-10-30T21:15:36.364Z,15.55
2023-10-30T21:17:16.153Z,15.56
2023-10-30T21:18:55.903Z,15.55
2023-10-30T21:20:35.661Z,15.55
2023-10-30T21:22:15.565Z,15.54
2023-10-30T21:23:55.192Z,15.5
2023-10-30T21:25:35.036Z,15.5
2023-10-30T21:27:14.784Z,15.48
2023-10-30T21:28:54.597Z,15.51
2023-10-30T21:30:34.251Z,15.5
2023-10-30T21:32:14.064Z,15.5
2023-10-30T21:33:53.799Z,15.48
2023-10-30T21:35:33.567Z,15.48
2023-10-30T21:37:13.360Z,15.44
2023-10-30T21:38:53.298Z,15.43
2023-10-30T21:40:32.921Z,15.43
2023-10-30T21:42:12.675Z,15.42
2023-10-30T21:43:52.503Z,15.42
2023-10-30T21:45:32.159Z,15.41
2023-10-30T21:47:12.006Z,15.4
2023-10-30T21:48:51.718Z,15.4